Time;durP1;ratioP1;P1;durP2;ratioP2;P2;SDS_P1;SDS_P2;PMS_P1;PMS_P2;Temp;Humidity;BMP_temperature;BMP_pressure;BME280_temperature;BME280_humidity;BME280_pressure;Samples;Min_cycle;Max_cycle;Signal;HPM_P1;HPM_P2
2022/06/15 00:00:44;;;;;;;8.30;2.38;;;16.10;97.20;;;;;;5046226;28;20059;-68
2022/06/15 00:03:12;;;;;;;12.45;2.63;;;16.10;97.20;;;;;;5045936;28;20339;-68
2022/06/15 00:05:38;;;;;;;8.38;2.70;;;16.10;97.30;;;;;;5046040;28;20018;-68
2022/06/15 00:08:04;;;;;;;8.05;2.80;;;16.10;97.40;;;;;;5046038;28;20289;-68
2022/06/15 00:10:30;;;;;;;5.47;2.70;;;16.10;97.50;;;;;;5047220;28;20033;-68
2022/06/15 00:12:56;;;;;;;8.23;2.40;;;16.00;97.60;;;;;;5045602;28;20025;-68
2022/06/15 00:15:22;;;;;;;6.80;2.88;;;16.00;97.60;;;;;;5045528;28;20029;-68
2022/06/15 00:17:48;;;;;;;9.95;2.60;;;16.00;97.80;;;;;;5046880;28;20285;-68
2022/06/15 00:20:14;;;;;;;6.82;2.60;;;16.00;97.80;;;;;;5047103;28;20038;-68
2022/06/15 00:22:41;;;;;;;8.98;3.10;;;16.00;97.90;;;;;;5046529;28;20037;-68
2022/06/15 00:25:08;;;;;;;9.60;3.20;;;16.00;97.90;;;;;;5046650;28;20029;-68
2022/06/15 00:27:34;;;;;;;11.68;3.05;;;16.00;97.90;;;;;;5045733;28;20101;-68
2022/06/15 00:30:00;;;;;;;12.13;3.40;;;16.00;98.00;;;;;;5046660;28;20328;-68
2022/06/15 00:32:25;;;;;;;10.35;3.50;;;15.90;98.00;;;;;;5045483;28;20098;-68
2022/06/15 00:34:51;;;;;;;8.27;3.47;;;15.80;98.00;;;;;;5045265;28;20029;-69
2022/06/15 00:37:16;;;;;;;11.20;3.13;;;15.80;98.20;;;;;;5046574;28;20018;-68
2022/06/15 00:39:42;;;;;;;10.48;3.28;;;15.80;98.40;;;;;;5029254;28;20021;-68
2022/06/15 00:42:12;;;;;;;10.35;3.40;;;15.80;98.70;;;;;;5045389;28;20029;-68
2022/06/15 00:44:38;;;;;;;7.85;3.08;;;15.80;98.70;;;;;;5045129;28;20239;-68
2022/06/15 00:47:16;;;;;;;10.60;3.25;;;15.80;98.80;;;;;;5045948;28;20021;-68
2022/06/15 00:50:05;;;;;;;10.85;3.88;;;15.80;98.80;;;;;;5046751;28;20025;-68
2022/06/15 00:52:55;;;;;;;13.82;3.13;;;15.80;98.90;;;;;;5057003;28;20039;-68
2022/06/15 00:55:30;;;;;;;9.65;3.20;;;15.80;99.10;;;;;;5029765;28;20028;-68
2022/06/15 00:57:56;;;;;;;10.32;3.58;;;15.70;99.20;;;;;;5028427;28;20060;-68
2022/06/15 01:00:23;;;;;;;8.18;3.40;;;15.70;99.30;;;;;;5045819;28;20068;-68
2022/06/15 01:02:49;;;;;;;10.13;3.35;;;15.70;99.30;;;;;;5045198;28;20034;-69
2022/06/15 01:05:19;;;;;;;7.55;3.20;;;15.70;99.30;;;;;;5046199;28;20025;-68
2022/06/15 01:08:13;;;;;;;15.65;3.75;;;15.70;99.40;;;;;;5044921;28;20028;-68
2022/06/15 01:11:11;;;;;;;8.70;3.03;;;15.70;99.40;;;;;;5046011;28;20021;-68
2022/06/15 01:14:16;;;;;;;9.25;3.25;;;15.60;99.40;;;;;;5045602;28;20204;-69
2022/06/15 01:17:12;;;;;;;9.07;2.97;;;15.60;99.50;;;;;;5045187;28;20072;-68
2022/06/15 01:20:18;;;;;;;8.52;3.15;;;15.60;99.60;;;;;;5045512;28;20030;-68
2022/06/15 01:23:26;;;;;;;10.70;3.15;;;15.50;99.50;;;;;;5030755;28;20029;-68
2022/06/15 01:26:31;;;;;;;8.38;3.33;;;15.50;99.80;;;;;;5045238;28;20039;-68
2022/06/15 01:29:29;;;;;;;7.53;2.60;;;15.30;99.90;;;;;;5032034;28;20032;-67
2022/06/15 01:32:06;;;;;;;8.65;3.55;;;15.20;99.90;;;;;;5057022;28;20032;-67
2022/06/15 01:34:45;;;;;;;7.60;3.42;;;15.10;99.70;;;;;;5063599;28;20020;-68
2022/06/15 01:37:34;;;;;;;8.98;3.30;;;14.90;99.40;;;;;;5044367;28;20040;-68
2022/06/15 01:40:19;;;;;;;11.40;3.40;;;14.80;99.50;;;;;;5014697;28;20025;-68
2022/06/15 01:43:07;;;;;;;10.32;3.45;;;14.70;99.60;;;;;;5043965;28;20036;-67
2022/06/15 01:45:35;;;;;;;5.82;3.55;;;14.60;99.60;;;;;;5044195;28;20037;-68
2022/06/15 01:48:05;;;;;;;9.55;3.40;;;14.60;99.60;;;;;;5055706;28;20308;-67
2022/06/15 01:50:37;;;;;;;7.53;3.30;;;14.60;99.80;;;;;;5064374;28;20048;-67
2022/06/15 01:53:21;;;;;;;;;;;14.60;99.90;;;;;;5065137;28;20327;-68
2022/06/15 01:55:55;;;;;;;7.07;3.45;;;14.60;99.90;;;;;;5063374;28;19900;-67
2022/06/15 01:58:25;;;;;;;10.68;3.22;;;14.60;99.90;;;;;;5047953;28;20185;-67
2022/06/15 02:01:04;;;;;;;4.57;3.35;;;14.50;99.90;;;;;;5065096;28;20040;-68
2022/06/15 02:03:45;;;;;;;6.80;3.45;;;14.40;99.90;;;;;;5063872;28;20020;-67
2022/06/15 02:06:22;;;;;;;7.95;3.85;;;14.40;99.90;;;;;;5063758;28;20101;-68
2022/06/15 02:09:15;;;;;;;9.02;3.65;;;14.40;99.90;;;;;;5063681;28;20021;-67
2022/06/15 02:11:43;;;;;;;7.53;3.80;;;14.30;99.90;;;;;;5064969;28;20021;-67
2022/06/15 02:14:22;;;;;;;7.78;3.65;;;14.20;99.90;;;;;;5063382;28;20067;-67
2022/06/15 02:17:10;;;;;;;7.38;3.75;;;14.10;99.90;;;;;;5064644;28;20021;-67
2022/06/15 02:19:41;;;;;;;7.05;3.50;;;14.10;99.90;;;;;;5049164;28;20205;-68
2022/06/15 02:22:11;;;;;;;9.35;3.90;;;14.00;99.90;;;;;;5046404;28;20236;-68
2022/06/15 02:24:38;;;;;;;5.60;3.15;;;14.00;99.90;;;;;;5052023;28;20079;-68
2022/06/15 02:27:07;;;;;;;6.68;3.63;;;14.00;99.90;;;;;;5043213;28;20087;-68
2022/06/15 02:29:35;;;;;;;5.97;3.42;;;14.00;99.90;;;;;;5043064;28;20079;-68
2022/06/15 02:32:01;;;;;;;5.50;3.60;;;13.90;99.90;;;;;;5043112;28;20021;-67
2022/06/15 02:34:27;;;;;;;7.55;4.22;;;13.80;99.90;;;;;;5043649;28;20066;-68
2022/06/15 02:36:54;;;;;;;8.55;4.30;;;13.70;99.90;;;;;;5042798;28;20029;-67
2022/06/15 02:39:20;;;;;;;6.55;3.72;;;13.60;99.90;;;;;;5043004;28;20087;-68
2022/06/15 02:41:46;;;;;;;6.43;4.07;;;13.60;99.90;;;;;;5044005;28;20053;-67
2022/06/15 02:44:16;;;;;;;7.05;3.83;;;13.50;99.90;;;;;;5043790;28;20036;-68
2022/06/15 02:46:46;;;;;;;9.80;4.53;;;13.50;99.90;;;;;;5025921;28;20021;-68
2022/06/15 02:49:13;;;;;;;6.97;3.80;;;13.40;99.90;;;;;;5042792;28;20028;-67
2022/06/15 02:51:55;;;;;;;9.50;4.28;;;13.40;99.90;;;;;;5042977;28;20029;-68
2022/06/15 02:54:42;;;;;;;11.35;4.18;;;13.50;99.90;;;;;;5042453;28;20033;-68
2022/06/15 02:57:08;;;;;;;11.80;4.13;;;13.50;99.90;;;;;;5024881;28;20051;-68
2022/06/15 02:59:34;;;;;;;8.73;4.32;;;13.50;99.90;;;;;;5042260;28;20041;-68
2022/06/15 03:02:00;;;;;;;13.95;4.75;;;13.40;99.90;;;;;;5043593;28;20033;-67
2022/06/15 03:04:26;;;;;;;12.35;4.63;;;13.30;99.90;;;;;;5043622;28;20072;-67
2022/06/15 03:06:51;;;;;;;9.38;4.70;;;13.30;99.90;;;;;;5042621;28;20025;-67
2022/06/15 03:09:17;;;;;;;7.35;4.40;;;13.30;99.90;;;;;;5043464;28;20177;-67
2022/06/15 03:11:45;;;;;;;8.15;4.38;;;13.30;99.90;;;;;;5043252;28;20017;-68
2022/06/15 03:14:10;;;;;;;9.68;4.60;;;13.20;99.90;;;;;;5043104;28;20021;-68
2022/06/15 03:16:38;;;;;;;6.50;4.47;;;13.20;99.90;;;;;;5041984;28;20249;-68
2022/06/15 03:19:03;;;;;;;9.18;4.45;;;13.10;99.90;;;;;;5042028;28;20297;-67
2022/06/15 03:21:29;;;;;;;9.48;4.32;;;13.10;99.90;;;;;;5042229;28;20096;-67
2022/06/15 03:23:55;;;;;;;7.03;3.95;;;13.00;99.90;;;;;;5049208;28;20020;-68
2022/06/15 03:26:20;;;;;;;13.13;4.90;;;13.00;99.90;;;;;;5063437;28;20080;-68
2022/06/15 03:28:46;;;;;;;9.80;5.07;;;13.00;99.90;;;;;;5063131;28;20017;-67
2022/06/15 03:31:12;;;;;;;7.97;5.25;;;12.80;99.90;;;;;;5063006;28;20025;-68
2022/06/15 03:33:37;;;;;;;10.18;4.55;;;12.80;99.90;;;;;;5045382;28;20100;-67
2022/06/15 03:36:04;;;;;;;11.85;5.22;;;12.80;99.90;;;;;;5063258;28;20012;-67
2022/06/15 03:38:31;;;;;;;11.82;5.43;;;12.80;99.90;;;;;;5061764;28;20063;-67
2022/06/15 03:40:57;;;;;;;11.30;4.93;;;12.80;99.90;;;;;;5061881;28;20075;-68
2022/06/15 03:43:23;;;;;;;10.63;4.72;;;12.80;99.90;;;;;;5062966;28;20254;-67
2022/06/15 03:45:49;;;;;;;9.52;4.80;;;12.80;99.90;;;;;;5062705;28;20008;-67
2022/06/15 03:48:15;;;;;;;10.65;5.40;;;12.70;99.90;;;;;;5061844;28;20320;-67
2022/06/15 03:50:41;;;;;;;15.27;5.47;;;12.80;99.90;;;;;;5045402;28;20327;-67
2022/06/15 03:53:09;;;;;;;9.45;5.50;;;12.80;99.90;;;;;;5062865;28;20087;-67
2022/06/15 03:55:36;;;;;;;9.75;5.18;;;12.80;99.90;;;;;;5062218;28;20040;-68
2022/06/15 03:58:02;;;;;;;13.40;4.95;;;12.80;99.90;;;;;;5043905;28;20090;-68
2022/06/15 04:00:31;;;;;;;9.15;4.95;;;12.80;99.90;;;;;;5061848;28;20064;-67
2022/06/15 04:02:57;;;;;;;9.00;4.70;;;12.90;99.90;;;;;;5062065;28;20119;-67
2022/06/15 04:05:28;;;;;;;7.85;4.53;;;12.90;99.90;;;;;;5063069;28;20029;-67
2022/06/15 04:10:39;;;;;;;11.02;4.85;;;12.90;99.90;;;;;;5048372;28;20021;-68
2022/06/15 04:13:05;;;;;;;11.93;5.35;;;12.80;99.90;;;;;;5063013;28;20055;-68
2022/06/15 04:15:31;;;;;;;11.40;5.68;;;12.80;99.90;;;;;;5062756;28;20017;-68
2022/06/15 04:17:56;;;;;;;12.27;5.30;;;12.90;99.90;;;;;;5061980;28;20021;-67
2022/06/15 04:20:32;;;;;;;11.18;5.40;;;12.90;99.90;;;;;;5061760;28;20063;-68
2022/06/15 04:23:01;;;;;;;10.38;5.70;;;12.90;99.90;;;;;;5061705;28;20028;-68
2022/06/15 04:25:30;;;;;;;13.77;5.47;;;12.90;99.90;;;;;;5058440;28;20022;-67
2022/06/15 04:27:57;;;;;;;13.18;5.63;;;12.90;99.90;;;;;;5025886;28;20082;-68
2022/06/15 04:30:23;;;;;;;16.25;6.85;;;12.90;99.90;;;;;;5041853;28;20013;-68
2022/06/15 04:32:49;;;;;;;10.50;5.55;;;12.80;99.90;;;;;;5042783;28;20030;-67
2022/06/15 04:35:15;;;;;;;11.75;5.78;;;13.00;99.90;;;;;;5041761;28;20259;-68
2022/06/15 04:37:41;;;;;;;12.52;4.88;;;13.10;99.90;;;;;;5043195;28;20049;-68
2022/06/15 04:40:08;;;;;;;11.48;5.10;;;13.40;99.90;;;;;;5041605;28;20212;-68
2022/06/15 04:42:35;;;;;;;11.20;4.85;;;13.60;99.90;;;;;;5041989;28;20033;-68
2022/06/15 04:45:01;;;;;;;9.98;4.90;;;13.70;99.90;;;;;;5045195;28;20049;-68
2022/06/15 04:47:27;;;;;;;9.70;4.85;;;13.80;99.90;;;;;;5028784;28;20200;-68
2022/06/15 04:49:52;;;;;;;10.20;5.00;;;13.90;99.60;;;;;;5045144;28;20017;-68
2022/06/15 04:52:18;;;;;;;10.77;5.20;;;14.00;99.20;;;;;;5028555;28;20088;-68
2022/06/15 04:54:44;;;;;;;12.90;5.13;;;14.20;98.90;;;;;;5045299;28;20032;-68
2022/06/15 04:57:09;;;;;;;11.80;4.85;;;14.30;98.60;;;;;;5043496;28;20033;-68
2022/06/15 04:59:35;;;;;;;15.60;4.88;;;14.50;98.50;;;;;;5044855;28;20316;-68
2022/06/15 05:02:01;;;;;;;17.58;5.25;;;14.60;98.00;;;;;;5045755;28;20056;-68
2022/06/15 05:04:27;;;;;;;13.18;4.45;;;14.70;97.60;;;;;;5046074;28;20017;-68
2022/06/15 05:06:53;;;;;;;11.07;4.68;;;14.70;97.40;;;;;;5028797;28;20080;-68
2022/06/15 05:09:19;;;;;;;10.73;4.80;;;14.70;97.40;;;;;;5028355;28;20025;-68
2022/06/15 05:11:45;;;;;;;16.48;4.78;;;14.80;97.50;;;;;;5044676;28;20029;-71
2022/06/15 05:14:11;;;;;;;13.52;4.90;;;14.80;97.30;;;;;;5011895;28;20028;-68
2022/06/15 05:16:38;;;;;;;11.90;4.53;;;15.00;97.20;;;;;;5044475;28;20028;-68
2022/06/15 05:19:04;;;;;;;8.48;4.55;;;15.10;97.10;;;;;;5012260;28;20022;-68
2022/06/15 05:21:30;;;;;;;9.80;4.97;;;15.10;96.80;;;;;;5045670;28;20028;-67
2022/06/15 05:23:56;;;;;;;10.95;4.63;;;15.10;96.80;;;;;;5044459;28;20018;-67
2022/06/15 05:26:24;;;;;;;12.65;4.97;;;14.90;97.10;;;;;;5044792;28;20029;-68
2022/06/15 05:28:50;;;;;;;9.05;5.07;;;14.80;97.40;;;;;;5044633;28;20312;-68
2022/06/15 05:31:20;;;;;;;15.00;5.18;;;14.50;98.00;;;;;;5044668;28;20084;-68
2022/06/15 05:33:47;;;;;;;15.20;5.50;;;14.40;98.40;;;;;;5027949;28;20022;-67
2022/06/15 05:36:15;;;;;;;10.90;4.97;;;14.40;98.60;;;;;;5045246;28;20052;-68
2022/06/15 05:38:41;;;;;;;12.50;5.53;;;14.40;98.60;;;;;;5044571;28;20089;-68
2022/06/15 05:41:07;;;;;;;14.35;5.35;;;14.50;98.70;;;;;;5045289;28;20300;-67
2022/06/15 05:43:35;;;;;;;17.95;5.93;;;14.60;98.70;;;;;;5044083;28;20018;-68
2022/06/15 05:46:12;;;;;;;11.98;4.90;;;14.60;98.90;;;;;;5027329;28;20131;-68
2022/06/15 05:48:38;;;;;;;15.30;5.53;;;14.60;99.00;;;;;;5045521;28;20055;-68
2022/06/15 05:51:04;;;;;;;16.95;5.65;;;14.70;99.00;;;;;;5043752;28;20021;-70
2022/06/15 05:53:30;;;;;;;18.35;5.80;;;14.70;99.20;;;;;;5026465;28;20255;-69
2022/06/15 05:55:56;;;;;;;18.30;6.07;;;14.80;99.30;;;;;;5043456;28;20025;-68
2022/06/15 05:58:21;;;;;;;15.38;6.05;;;14.80;99.20;;;;;;5042207;28;20317;-69
2022/06/15 06:00:47;;;;;;;16.33;6.20;;;14.90;99.20;;;;;;5044774;28;20013;-69
2022/06/15 06:03:13;;;;;;;15.65;5.97;;;14.90;99.20;;;;;;5027161;28;20300;-69
2022/06/15 06:05:38;;;;;;;17.63;5.72;;;15.00;99.10;;;;;;5060309;28;20017;-69
2022/06/15 06:08:05;;;;;;;15.35;5.78;;;15.10;99.20;;;;;;5045214;28;20021;-67
2022/06/15 06:10:31;;;;;;;13.63;5.85;;;15.10;99.20;;;;;;5043640;28;20026;-68
2022/06/15 06:12:56;;;;;;;19.02;5.57;;;15.10;99.20;;;;;;5043646;28;20193;-69
2022/06/15 06:15:22;;;;;;;16.65;6.20;;;15.10;99.40;;;;;;5059860;28;20025;-68
2022/06/15 06:17:48;;;;;;;14.15;5.18;;;15.10;99.70;;;;;;5043827;28;20312;-70
2022/06/15 06:20:13;;;;;;;16.23;5.55;;;15.30;99.80;;;;;;5043746;28;20029;-70
2022/06/15 06:22:39;;;;;;;16.17;5.60;;;15.30;99.60;;;;;;5026534;28;20036;-69
2022/06/15 06:25:06;;;;;;;24.77;6.18;;;15.40;99.50;;;;;;5046893;28;20311;-70
2022/06/15 06:27:32;;;;;;;19.77;6.50;;;15.50;99.50;;;;;;5063554;28;20045;-73
2022/06/15 06:29:57;;;;;;;18.15;6.22;;;15.60;99.50;;;;;;5063490;28;20029;-69
2022/06/15 06:32:23;;;;;;;22.05;6.93;;;15.70;99.20;;;;;;5064282;28;20032;-69
2022/06/15 06:34:49;;;;;;;21.60;6.78;;;15.80;99.10;;;;;;5046254;28;20029;-68
2022/06/15 06:37:15;;;;;;;15.57;6.97;;;15.90;99.10;;;;;;5064450;28;20067;-68
2022/06/15 06:39:41;;;;;;;20.75;7.22;;;15.90;99.00;;;;;;5046705;28;20052;-69
2022/06/15 06:42:07;;;;;;;15.18;7.00;;;16.10;98.80;;;;;;5062754;28;20357;-69
2022/06/15 06:44:32;;;;;;;16.33;6.32;;;16.20;98.40;;;;;;5062516;28;20044;-69
2022/06/15 06:46:58;;;;;;;20.67;6.15;;;16.30;98.20;;;;;;5046425;28;20088;-69
2022/06/15 06:49:25;;;;;;;14.23;5.72;;;16.30;98.20;;;;;;5063136;28;20029;-69
2022/06/15 06:51:51;;;;;;;18.73;6.20;;;16.30;98.00;;;;;;5063953;28;20041;-69
2022/06/15 06:54:20;;;;;;;12.75;5.70;;;16.30;98.00;;;;;;5060136;28;20330;-69
2022/06/15 06:56:45;;;;;;;19.40;6.00;;;16.40;97.90;;;;;;5047058;28;20009;-69
2022/06/15 06:59:13;;;;;;;14.07;5.35;;;16.50;97.70;;;;;;5060972;28;20049;-70
2022/06/15 07:01:40;;;;;;;14.80;5.45;;;16.60;97.60;;;;;;5060444;28;20036;-71
2022/06/15 07:04:07;;;;;;;12.27;5.40;;;16.70;97.30;;;;;;5054910;28;20025;-70
2022/06/15 07:06:33;;;;;;;11.65;6.15;;;16.70;96.80;;;;;;5025720;28;20083;-68
2022/06/15 07:08:59;;;;;;;15.68;6.20;;;16.90;96.50;;;;;;5043892;28;20320;-70
2022/06/15 07:11:24;;;;;;;12.15;5.93;;;16.90;96.10;;;;;;5042181;28;20021;-70
2022/06/15 07:13:50;;;;;;;10.55;5.60;;;17.00;95.70;;;;;;5043067;28;20036;-68
2022/06/15 07:16:19;;;;;;;9.38;5.40;;;17.00;95.30;;;;;;5048582;28;20020;-69
2022/06/15 07:18:46;;;;;;;7.78;5.50;;;17.20;95.40;;;;;;5040539;28;20026;-69
2022/06/15 07:21:16;;;;;;;11.55;5.90;;;17.30;95.00;;;;;;5043883;28;20034;-69
2022/06/15 07:23:44;;;;;;;11.20;5.78;;;17.40;94.60;;;;;;5058325;28;20017;-69
2022/06/15 07:26:14;;;;;;;8.55;4.93;;;17.40;94.00;;;;;;5042140;28;20029;-70
2022/06/15 07:28:41;;;;;;;11.35;5.68;;;17.50;94.10;;;;;;5045782;28;20029;-71
2022/06/15 07:31:07;;;;;;;15.27;5.85;;;17.60;93.70;;;;;;5045341;28;20044;-72
2022/06/15 07:33:34;;;;;;;12.00;4.88;;;17.60;93.50;;;;;;5047970;28;20029;-72
2022/06/15 07:36:00;;;;;;;18.02;5.93;;;17.70;93.60;;;;;;5034737;28;20027;-72
2022/06/15 07:38:26;;;;;;;20.35;6.70;;;17.80;93.60;;;;;;5043560;28;20115;-70
2022/06/15 07:40:53;;;;;;;16.67;6.22;;;17.90;93.40;;;;;;5044936;28;20017;-68
2022/06/15 07:43:20;;;;;;;24.65;6.20;;;18.00;93.50;;;;;;5044067;28;20053;-69
2022/06/15 07:45:46;;;;;;;15.82;6.00;;;18.00;93.20;;;;;;5041395;28;20080;-71
2022/06/15 07:50:58;;;;;;;14.32;5.28;;;18.10;93.30;;;;;;5040384;28;20022;-69
2022/06/15 07:53:23;;;;;;;10.23;5.47;;;18.20;93.00;;;;;;5040521;28;20030;-69
2022/06/15 07:55:52;;;;;;;14.90;5.07;;;18.30;92.80;;;;;;5038718;28;20270;-70
2022/06/15 07:58:18;;;;;;;14.43;5.25;;;18.30;92.60;;;;;;5044510;28;20246;-70
2022/06/15 08:00:47;;;;;;;12.65;5.20;;;18.50;92.50;;;;;;5026207;28;20356;-69
2022/06/15 08:03:14;;;;;;;11.38;4.60;;;18.50;92.30;;;;;;5050534;28;20031;-69
2022/06/15 08:05:43;;;;;;;11.80;4.60;;;18.60;92.20;;;;;;5043191;28;20072;-70
2022/06/15 08:08:14;;;;;;;14.93;4.32;;;18.70;92.20;;;;;;5040927;28;20029;-69
2022/06/15 08:10:40;;;;;;;17.20;4.78;;;18.80;92.00;;;;;;5042189;28;20031;-69
2022/06/15 08:13:07;;;;;;;15.52;4.53;;;18.90;91.50;;;;;;5044654;28;20041;-68
2022/06/15 08:15:34;;;;;;;13.13;4.15;;;19.10;91.10;;;;;;5060021;28;20079;-69
2022/06/15 08:18:03;;;;;;;22.42;4.53;;;19.30;90.70;;;;;;5059029;28;20032;-69
2022/06/15 08:20:36;;;;;;;11.07;4.35;;;19.30;90.50;;;;;;5046073;28;20029;-67
2022/06/15 08:23:21;;;;;;;11.02;3.72;;;19.50;90.30;;;;;;5047927;28;20021;-69
2022/06/15 08:25:50;;;;;;;11.27;3.30;;;19.50;90.00;;;;;;5049824;28;20024;-70
2022/06/15 08:28:19;;;;;;;9.95;3.47;;;19.50;90.00;;;;;;5059481;28;20014;-72
2022/06/15 08:30:46;;;;;;;10.82;3.13;;;19.40;89.30;;;;;;5044972;28;20018;-70
2022/06/15 08:33:12;;;;;;;13.45;3.42;;;19.40;89.40;;;;;;5030168;28;20032;-70
2022/06/15 08:35:38;;;;;;;8.40;3.05;;;19.40;89.30;;;;;;5048245;28;20037;-68
2022/06/15 08:38:06;;;;;;;10.50;3.33;;;19.50;89.20;;;;;;5064269;28;20032;-70
2022/06/15 08:40:44;;;;;;;14.50;3.60;;;19.60;89.30;;;;;;5028728;28;20051;-69
2022/06/15 08:43:24;;;;;;;7.88;2.70;;;19.80;88.80;;;;;;5044078;28;20324;-68
2022/06/15 08:45:54;;;;;;;8.02;2.40;;;20.00;88.00;;;;;;5049356;28;20221;-69
2022/06/15 08:48:58;;;;;;;10.40;2.60;;;20.10;86.80;;;;;;5043172;28;20029;-70
2022/06/15 08:51:41;;;;;;;9.95;2.42;;;20.20;86.10;;;;;;5046520;28;20255;-69
2022/06/15 08:54:18;;;;;;;10.73;2.40;;;20.40;85.60;;;;;;5045181;28;20090;-70
2022/06/15 08:56:47;;;;;;;9.45;2.67;;;20.40;84.60;;;;;;5043552;28;20056;-69
2022/06/15 08:59:52;;;;;;;9.75;2.35;;;20.40;85.00;;;;;;5043892;28;20065;-69
2022/06/15 09:02:45;;;;;;;6.90;2.17;;;20.40;85.50;;;;;;5015399;28;20235;-69
2022/06/15 09:05:35;;;;;;;6.10;2.15;;;20.40;85.50;;;;;;5043985;28;20029;-69
2022/06/15 09:08:18;;;;;;;7.70;2.10;;;20.40;85.20;;;;;;5031356;28;20032;-70
2022/06/15 09:10:51;;;;;;;13.23;2.53;;;20.50;83.70;;;;;;5044116;28;20021;-71
2022/06/15 09:13:57;;;;;;;8.38;2.30;;;20.50;84.50;;;;;;5044852;28;20024;-69
2022/06/15 09:16:47;;;;;;;8.77;2.15;;;20.40;82.00;;;;;;5034685;28;20022;-70
2022/06/15 09:19:19;;;;;;;5.82;2.28;;;20.40;83.30;;;;;;5045105;28;20113;-70
2022/06/15 09:21:52;;;;;;;8.35;2.22;;;20.50;83.40;;;;;;5053625;28;20136;-70
2022/06/15 09:24:27;;;;;;;12.52;2.65;;;20.70;82.80;;;;;;5049585;28;20059;-69
2022/06/15 09:26:56;;;;;;;5.85;1.90;;;20.90;81.70;;;;;;5043673;28;20076;-69
2022/06/15 09:29:29;;;;;;;6.93;2.05;;;21.00;81.10;;;;;;5044638;28;20033;-68
2022/06/15 09:32:18;;;;;;;7.80;2.35;;;21.00;81.50;;;;;;5043942;28;20097;-69
2022/06/15 09:34:52;;;;;;;11.88;2.60;;;21.10;81.60;;;;;;5032817;28;20260;-69
2022/06/15 09:37:21;;;;;;;7.68;2.08;;;21.00;81.00;;;;;;5044160;28;20052;-68
2022/06/15 09:39:47;;;;;;;7.72;2.22;;;21.10;81.60;;;;;;5027131;28;20041;-69
2022/06/15 09:42:19;;;;;;;5.28;2.05;;;21.10;81.80;;;;;;5042496;28;20112;-69
2022/06/15 09:45:25;;;;;;;7.95;2.25;;;21.20;80.30;;;;;;5042293;28;20105;-71
2022/06/15 09:48:30;;;;;;;8.30;2.33;;;21.10;80.30;;;;;;5026430;28;20302;-68
2022/06/15 09:51:18;;;;;;;6.38;1.92;;;21.30;80.00;;;;;;5038492;28;20055;-69
2022/06/15 09:54:10;;;;;;;10.10;2.80;;;21.40;80.40;;;;;;5045083;28;20307;-68
2022/06/15 09:56:36;;;;;;;10.38;2.38;;;21.30;80.90;;;;;;5052996;28;20051;-70
2022/06/15 09:59:08;;;;;;;6.68;2.30;;;21.30;82.00;;;;;;5058321;28;20064;-70
2022/06/15 10:01:41;;;;;;;9.00;2.35;;;21.40;80.40;;;;;;5042662;28;20021;-70
2022/06/15 10:04:15;;;;;;;5.35;2.47;;;21.40;80.40;;;;;;5058589;28;20216;-70
2022/06/15 10:06:52;;;;;;;6.40;2.42;;;21.40;81.00;;;;;;5063561;28;20051;-68
2022/06/15 10:09:24;;;;;;;5.78;2.72;;;21.40;82.20;;;;;;5053787;28;20021;-68
2022/06/15 10:11:53;;;;;;;18.52;3.33;;;21.40;82.50;;;;;;5043582;28;20025;-69
2022/06/15 10:14:26;;;;;;;6.10;2.28;;;21.50;81.70;;;;;;5026789;28;20067;-68
2022/06/15 10:17:21;;;;;;;5.85;1.83;;;21.50;81.00;;;;;;5052041;28;20029;-70
2022/06/15 10:19:50;;;;;;;8.10;2.33;;;21.50;81.30;;;;;;5033980;28;20037;-69
2022/06/15 10:22:38;;;;;;;10.15;2.40;;;21.70;79.30;;;;;;5041986;28;20079;-72
2022/06/15 10:25:06;;;;;;;8.32;2.30;;;21.80;80.30;;;;;;5053801;28;20051;-70
2022/06/15 10:27:35;;;;;;;6.90;2.58;;;21.90;80.90;;;;;;5042933;28;20212;-69
2022/06/15 10:30:22;;;;;;;8.85;2.45;;;22.00;80.50;;;;;;5064096;28;20158;-73
2022/06/15 10:33:11;;;;;;;9.13;2.70;;;22.10;80.10;;;;;;5059021;28;20049;-71
2022/06/15 10:35:36;;;;;;;9.45;2.55;;;22.30;78.60;;;;;;5042329;28;20022;-70
2022/06/15 10:38:10;;;;;;;6.68;2.22;;;22.30;78.70;;;;;;5043652;28;20297;-69
2022/06/15 10:40:38;;;;;;;8.32;2.22;;;22.30;77.60;;;;;;5042668;28;20021;-70
2022/06/15 10:43:20;;;;;;;6.60;2.00;;;22.40;78.10;;;;;;5043156;28;20316;-70
2022/06/15 10:46:00;;;;;;;5.85;1.98;;;22.50;77.90;;;;;;5046625;28;20056;-69
2022/06/15 10:48:49;;;;;;;8.10;2.10;;;22.60;77.10;;;;;;5046574;28;20039;-68
2022/06/15 10:51:30;;;;;;;6.45;2.25;;;22.80;76.30;;;;;;5043496;28;20021;-69
2022/06/15 11:02:06;;;;;;;4.70;2.20;;;23.00;76.60;;;;;;5042523;28;20390;-70
2022/06/15 11:03:19;;;;;;;5.30;2.00;;;23.50;75.00;;;;;;5068834;28;20236;-71
2022/06/15 11:05:47;;;;;;;14.32;2.60;;;23.60;73.10;;;;;;5040856;28;20029;-72
2022/06/15 11:08:21;;;;;;;7.05;2.50;;;23.60;72.80;;;;;;5041476;28;20092;-72
2022/06/15 11:10:50;;;;;;;8.65;2.55;;;23.40;73.50;;;;;;5044100;28;20063;-70
2022/06/15 11:13:37;;;;;;;6.28;2.20;;;23.30;73.20;;;;;;5036588;28;20025;-71
2022/06/15 11:19:15;;;;;;;4.15;1.85;;;23.30;71.80;;;;;;5041271;28;20033;-71
2022/06/15 11:21:48;;;;;;;7.15;1.60;;;23.30;71.90;;;;;;5041089;28;20084;-69
2022/06/15 11:24:39;;;;;;;7.43;1.73;;;23.40;71.80;;;;;;5042713;28;20092;-72
2022/06/15 11:27:32;;;;;;;5.55;1.85;;;23.30;70.30;;;;;;5043590;28;20017;-71
2022/06/15 11:30:11;;;;;;;4.47;1.60;;;23.30;70.80;;;;;;5044720;28;20024;-71
2022/06/15 11:32:45;;;;;;;9.52;2.30;;;23.60;71.30;;;;;;5061518;28;20060;-71
2022/06/15 11:35:30;;;;;;;5.25;1.95;;;23.80;71.50;;;;;;5061691;28;20024;-72
2022/06/15 11:38:34;;;;;;;8.35;2.45;;;24.00;71.50;;;;;;5052120;28;20029;-71
2022/06/15 11:41:16;;;;;;;9.15;2.00;;;24.10;71.60;;;;;;5025965;28;20022;-71
2022/06/15 11:43:44;;;;;;;;;;;24.30;70.60;;;;;;5042680;28;20282;-71
2022/06/15 11:46:26;;;;;;;4.40;1.58;;;24.30;69.50;;;;;;5024137;28;19901;-72
2022/06/15 11:49:11;;;;;;;4.00;1.55;;;24.30;68.30;;;;;;5055820;28;20048;-71
2022/06/15 11:52:08;;;;;;;6.93;1.90;;;24.50;68.30;;;;;;5030773;28;20021;-72
2022/06/15 11:54:55;;;;;;;5.03;2.08;;;24.60;69.00;;;;;;5065670;28;20207;-71
2022/06/15 11:57:55;;;;;;;4.10;1.77;;;24.70;68.70;;;;;;5064939;28;20263;-71
2022/06/15 12:00:48;;;;;;;8.95;2.65;;;24.50;68.90;;;;;;5065668;28;20048;-71
2022/06/15 12:03:45;;;;;;;5.00;1.85;;;24.60;69.30;;;;;;5036028;28;20033;-70
2022/06/15 12:06:22;;;;;;;9.18;2.00;;;24.80;68.50;;;;;;5051942;28;20294;-70
2022/06/15 12:09:29;;;;;;;7.38;1.63;;;24.80;67.60;;;;;;5045498;28;20125;-71
2022/06/15 12:12:38;;;;;;;6.65;1.85;;;24.90;65.70;;;;;;5041608;28;20033;-75
2022/06/15 12:15:35;;;;;;;8.20;1.83;;;25.20;66.80;;;;;;5047059;28;20021;-75
2022/06/15 12:18:29;;;;;;;5.28;1.70;;;25.50;66.20;;;;;;5045366;28;20076;-72
2022/06/15 12:21:14;;;;;;;3.90;1.85;;;25.40;66.10;;;;;;5043450;28;20196;-76
2022/06/15 12:23:46;;;;;;;5.13;1.65;;;25.20;67.00;;;;;;5029345;28;20025;-72
2022/06/15 12:26:52;;;;;;;5.00;1.77;;;25.20;67.10;;;;;;5044900;28;20351;-73
2022/06/15 12:29:57;;;;;;;6.10;1.90;;;25.40;66.10;;;;;;5055088;28;20032;-71
2022/06/15 12:33:02;;;;;;;6.85;2.03;;;25.20;65.50;;;;;;5048518;28;20028;-71
2022/06/15 12:36:08;;;;;;;8.50;2.30;;;25.20;66.30;;;;;;5049188;28;20052;-72
2022/06/15 12:38:58;;;;;;;7.15;2.30;;;25.30;65.80;;;;;;5042149;28;20056;-71
2022/06/15 12:44:22;;;;;;;6.95;1.80;;;25.20;65.00;;;;;;5031131;28;20037;-70
2022/06/15 12:46:51;;;;;;;7.32;1.75;;;25.10;65.20;;;;;;5045037;28;20025;-71
2022/06/15 12:49:26;;;;;;;8.13;1.75;;;25.10;66.20;;;;;;5044045;28;20332;-69
2022/06/15 12:52:32;;;;;;;4.25;1.60;;;25.20;65.30;;;;;;5047620;28;20033;-70
2022/06/15 12:55:13;;;;;;;8.07;1.70;;;25.50;62.70;;;;;;5055253;28;20353;-69
2022/06/15 12:58:05;;;;;;;5.03;1.45;;;25.40;61.70;;;;;;5025767;28;20041;-70
2022/06/15 13:00:39;;;;;;;7.50;1.75;;;25.10;61.40;;;;;;5013524;28;20387;-70
2022/06/15 13:03:39;;;;;;;6.95;1.50;;;25.10;61.20;;;;;;5044811;28;20275;-70
2022/06/15 13:06:26;;;;;;;2.72;1.48;;;25.40;61.20;;;;;;5043094;28;20047;-71
2022/06/15 13:09:18;;;;;;;1.67;1.10;;;25.50;59.90;;;;;;5043944;28;20024;-69
2022/06/15 13:12:09;;;;;;;4.25;1.23;;;25.50;59.70;;;;;;5022505;28;20018;-69
2022/06/15 13:14:57;;;;;;;5.45;0.90;;;25.40;58.30;;;;;;5033930;28;20017;-67
2022/06/15 13:17:26;;;;;;;4.95;1.10;;;25.10;57.30;;;;;;5042698;28;20052;-69
2022/06/15 13:20:03;;;;;;;4.90;1.23;;;25.10;57.50;;;;;;5041054;28;20067;-69
2022/06/15 13:22:32;;;;;;;3.40;1.17;;;25.20;57.10;;;;;;5042808;28;20032;-68
2022/06/15 13:25:19;;;;;;;6.53;1.13;;;25.40;58.10;;;;;;5037732;28;20033;-68
2022/06/15 13:28:08;;;;;;;2.28;1.00;;;25.70;57.10;;;;;;5035638;28;20033;-69
2022/06/15 13:30:58;;;;;;;8.20;1.50;;;25.80;55.80;;;;;;5061251;28;20066;-70
2022/06/15 13:34:03;;;;;;;2.83;1.13;;;25.90;56.00;;;;;;5061989;28;20308;-70
2022/06/15 13:36:29;;;;;;;6.55;1.42;;;25.60;54.90;;;;;;5050652;28;20021;-70